Terminal Aerodrome Forecast
Issued by NWS Pueblo, CO

Home | Current Version | Previous Version | Text Only | Print | Product List | Glossary On
Versions: 1 2 3 4 5 6 7 8 9 10 11 12 13 14 15 16 17 18 19 20 21 22 23 24 25 26 27 28 29 30 31
000
FTUS45 KPUB 050520
TAFCOS
TAF
KCOS 050520Z 0506/0606 35010KT P6SM SCT120 BKN200
     FM051400 14008KT P6SM SCT080 BKN120
     FM051700 16012KT P6SM SCT080 SCT120
     FM052000 19015KT P6SM SCT070 BKN120
     FM060200 35008KT P6SM SCT100 SCT150=

USA.gov is the U.S. government's official web portal to all federal, state and local government web resources and services.